Time;durP1;ratioP1;P1;durP2;ratioP2;P2;SDS_P1;SDS_P2;PMS_P1;PMS_P2;Temp;Humidity;BMP_temperature;BMP_pressure;BME280_temperature;BME280_humidity;BME280_pressure;Samples;Min_cycle;Max_cycle;Signal;HPM_P1;HPM_P2
2021/11/17 02:28:37;;;;;;;27.90;15.68;;;;;;;4.62;100.00;101121.28;5009209;28;20045;-76
2021/11/17 02:31:31;;;;;;;26.17;15.40;;;;;;;4.69;100.00;101119.38;5001892;28;20495;-76
2021/11/17 02:34:42;;;;;;;29.60;16.88;;;;;;;4.63;100.00;101117.75;4961296;28;20101;-76
2021/11/17 02:37:44;;;;;;;37.92;18.10;;;;;;;4.69;100.00;101114.16;4975768;28;20124;-75
2021/11/17 02:40:35;;;;;;;28.92;16.40;;;;;;;4.62;100.00;101110.84;4967095;28;20050;-74
2021/11/17 02:43:22;;;;;;;26.50;15.40;;;;;;;4.66;100.00;101122.91;4972477;28;20121;-77
2021/11/17 02:45:55;;;;;;;;;;;;;;;4.66;100.00;101122.91;4971879;28;20652;-74
2021/11/17 02:48:43;;;;;;;29.45;16.58;;;;;;;4.56;100.00;101119.69;4974120;28;20044;-76
2021/11/17 02:51:40;;;;;;;25.40;14.93;;;;;;;4.55;100.00;101112.78;4985424;28;20095;-75
2021/11/17 02:54:34;;;;;;;30.08;17.27;;;;;;;4.56;100.00;101117.09;5042972;28;20053;-75
2021/11/17 02:57:07;;;;;;;28.45;16.90;;;;;;;4.55;100.00;101119.75;5007763;28;20045;-75
2021/11/17 03:00:12;;;;;;;23.77;15.07;;;;;;;4.48;100.00;101116.41;4997102;28;20239;-74
2021/11/17 03:02:46;;;;;;;28.00;16.38;;;;;;;4.41;100.00;101117.47;5037669;28;20061;-75
2021/11/17 03:05:22;;;;;;;25.10;15.90;;;;;;;4.39;100.00;101119.25;5020853;28;20499;-74
2021/11/17 03:08:05;;;;;;;23.63;14.77;;;;;;;4.36;100.00;101124.53;5035837;28;20052;-75
2021/11/17 03:10:48;;;;;;;24.92;14.93;;;;;;;4.32;100.00;101117.69;4996413;28;20047;-76
2021/11/17 03:13:18;;;;;;;26.13;16.60;;;;;;;4.36;100.00;101126.31;5014698;28;20052;-76
2021/11/17 03:16:16;;;;;;;23.45;14.95;;;;;;;4.31;100.00;101118.59;5017468;28;20053;-75
2021/11/17 03:19:08;;;;;;;33.67;16.67;;;;;;;4.29;100.00;101123.00;5018178;28;20045;-78
2021/11/17 03:22:28;;;;;;;26.92;16.08;;;;;;;4.28;100.00;101118.69;5016693;28;20080;-76
2021/11/17 03:25:10;;;;;;;23.48;14.27;;;;;;;4.32;100.00;101117.69;4987137;28;20884;-77
2021/11/17 03:27:45;;;;;;;24.10;15.80;;;;;;;4.34;100.00;101121.13;5025740;28;20408;-75
2021/11/17 03:30:33;;;;;;;22.65;12.55;;;;;;;4.34;100.00;101118.53;5022784;28;20061;-76
2021/11/17 03:33:22;;;;;;;21.98;12.85;;;;;;;4.29;100.00;101123.84;5031581;28;20054;-77
2021/11/17 03:36:11;;;;;;;20.83;13.63;;;;;;;4.36;100.00;101121.09;5001240;28;20037;-76
2021/11/17 03:38:59;;;;;;;20.00;11.15;;;;;;;4.27;100.00;101115.22;5022987;28;20139;-76
2021/11/17 03:41:51;;;;;;;21.63;13.60;;;;;;;4.25;100.00;101116.16;4997609;28;20049;-77
2021/11/17 03:44:58;;;;;;;22.20;12.88;;;;;;;4.21;100.00;101119.72;5026843;28;20053;-76
2021/11/17 03:47:50;;;;;;;18.25;12.18;;;;;;;4.18;100.00;101122.41;5009601;28;20496;-75
2021/11/17 03:50:35;;;;;;;18.92;11.82;;;;;;;4.22;100.00;101111.84;4996084;28;20045;-76
2021/11/17 03:53:12;;;;;;;19.63;12.27;;;;;;;4.25;100.00;101109.19;5011443;28;20042;-75
2021/11/17 03:56:17;;;;;;;17.58;10.65;;;;;;;4.25;100.00;101105.72;4994395;28;20070;-74
2021/11/17 03:59:00;;;;;;;17.45;11.32;;;;;;;4.29;100.00;101109.97;5036347;28;20055;-76
2021/11/17 04:01:42;;;;;;;18.23;11.48;;;;;;;4.26;100.00;101104.81;5028853;28;20052;-76
2021/11/17 04:04:36;;;;;;;17.52;11.48;;;;;;;4.26;100.00;101102.22;5002300;28;20072;-76
2021/11/17 04:07:28;;;;;;;21.05;11.88;;;;;;;4.22;100.00;101101.44;5003076;28;20050;-75
2021/11/17 04:10:28;;;;;;;16.85;11.32;;;;;;;4.18;100.00;101098.94;5014293;28;20049;-76
2021/11/17 04:13:07;;;;;;;17.33;11.80;;;;;;;4.23;100.00;101105.78;5000959;28;20542;-74
2021/11/17 04:15:43;;;;;;;19.20;11.98;;;;;;;4.18;100.00;101107.63;5030622;28;20431;-76
2021/11/17 04:18:16;;;;;;;;;;;;;;;4.21;100.00;101112.75;4997995;28;20049;-76
2021/11/17 04:20:50;;;;;;;18.60;11.68;;;;;;;4.20;100.00;101116.28;5030799;28;20489;-75
2021/11/17 04:23:59;;;;;;;19.02;12.10;;;;;;;4.17;100.00;101107.66;5035355;28;20060;-76
2021/11/17 04:26:37;;;;;;;18.83;12.50;;;;;;;4.25;100.00;101111.78;4997946;28;20052;-76
2021/11/17 04:29:28;;;;;;;19.58;12.00;;;;;;;4.22;100.00;101113.63;5020416;28;20053;-75
2021/11/17 04:32:02;;;;;;;17.10;10.88;;;;;;;4.21;100.00;101112.75;5040018;28;20057;-77
2021/11/17 04:34:32;;;;;;;17.30;11.48;;;;;;;4.18;100.00;101110.22;5027316;28;20443;-74
2021/11/17 04:37:13;;;;;;;14.85;9.38;;;;;;;4.17;100.00;101118.94;5016713;28;20058;-76
2021/11/17 04:39:46;;;;;;;17.10;9.88;;;;;;;4.04;100.00;101113.16;5017939;28;20041;-76
2021/11/17 04:42:42;;;;;;;13.52;8.43;;;;;;;4.05;100.00;101111.41;5032658;28;20049;-75
2021/11/17 04:45:30;;;;;;;16.48;9.85;;;;;;;4.11;100.00;101113.03;5031007;28;20103;-74
2021/11/17 04:48:39;;;;;;;13.60;9.82;;;;;;;4.07;100.00;101109.66;5004021;28;20140;-75
2021/11/17 04:51:18;;;;;;;13.95;7.47;;;;;;;4.03;100.00;101106.25;5024556;28;20657;-76
2021/11/17 04:54:10;;;;;;;10.15;6.38;;;;;;;4.00;100.00;101103.72;5015597;28;20064;-76
2021/11/17 04:57:08;;;;;;;10.57;7.57;;;;;;;4.00;100.00;101105.47;5038359;28;20056;-76
2021/11/17 04:59:48;;;;;;;10.27;6.93;;;;;;;3.95;100.00;101107.31;5021004;28;20116;-74
2021/11/17 05:02:23;;;;;;;11.85;8.07;;;;;;;4.05;100.00;101104.47;5011721;28;20068;-74
2021/11/17 05:05:28;;;;;;;11.10;7.15;;;;;;;4.06;100.00;101108.78;5010640;28;20057;-76
2021/11/17 05:08:14;;;;;;;11.95;7.40;;;;;;;4.05;100.00;101106.19;5028172;28;20144;-74
2021/11/17 05:10:47;;;;;;;12.52;7.32;;;;;;;4.03;100.00;101105.41;5012135;28;20042;-74
2021/11/17 05:13:41;;;;;;;11.35;7.85;;;;;;;3.95;100.00;101104.72;5031620;28;20060;-76
2021/11/17 05:16:28;;;;;;;12.20;8.50;;;;;;;3.99;100.00;101104.63;5012308;28;20484;-78
2021/11/17 05:19:22;;;;;;;11.75;8.50;;;;;;;4.04;100.00;101107.97;5011248;28;20356;-75
2021/11/17 05:22:07;;;;;;;12.65;8.30;;;;;;;4.07;100.00;101102.69;5032086;28;21539;-75
2021/11/17 05:24:46;;;;;;;14.23;8.77;;;;;;;4.05;100.00;101107.09;5007423;28;20060;-75
2021/11/17 05:27:18;;;;;;;12.20;9.07;;;;;;;4.02;100.00;101104.53;5024117;28;20053;-75
2021/11/17 05:30:15;;;;;;;13.57;9.75;;;;;;;4.00;100.00;101106.31;5022535;28;20480;-74
2021/11/17 05:32:55;;;;;;;13.10;9.27;;;;;;;4.02;100.00;101096.72;5014164;28;20046;-74
2021/11/17 05:35:42;;;;;;;12.90;9.07;;;;;;;4.00;100.00;101103.72;5014094;28;20048;-78
2021/11/17 05:38:15;;;;;;;11.82;9.15;;;;;;;4.01;100.00;101095.03;4993978;28;20045;-75
2021/11/17 05:40:51;;;;;;;12.93;9.38;;;;;;;4.02;100.00;101101.94;5040002;28;20041;-74
2021/11/17 05:43:27;;;;;;;11.55;8.73;;;;;;;4.04;100.00;101104.50;5026439;28;20083;-75
2021/11/17 05:46:16;;;;;;;15.50;10.05;;;;;;;4.05;100.00;101104.47;4999749;28;20076;-74
2021/11/17 05:48:55;;;;;;;15.15;9.35;;;;;;;4.05;100.00;101099.28;5012245;28;20038;-75
2021/11/17 05:51:32;;;;;;;14.07;9.77;;;;;;;4.00;100.00;101100.25;5022347;28;20046;-79
2021/11/17 05:54:43;;;;;;;16.30;10.77;;;;;;;4.06;100.00;101098.38;5032180;28;20060;-76
2021/11/17 05:57:35;;;;;;;13.60;9.52;;;;;;;4.04;100.00;101110.56;5017819;28;20048;-76
2021/11/17 06:00:14;;;;;;;16.10;9.68;;;;;;;4.06;100.00;101118.38;5024135;28;20061;-76
2021/11/17 06:02:47;;;;;;;16.20;10.57;;;;;;;3.98;100.00;101118.53;5028425;28;20056;-75
2021/11/17 06:05:14;;;;;;;16.38;9.68;;;;;;;4.02;100.00;101112.38;5015769;28;20049;-77
2021/11/17 06:07:41;;;;;;;13.70;9.20;;;;;;;4.01;100.00;101121.09;5033540;28;20168;-75
2021/11/17 06:10:11;;;;;;;14.10;9.93;;;;;;;4.05;100.00;101109.69;5021112;28;20045;-75
2021/11/17 06:12:39;;;;;;;14.23;10.02;;;;;;;4.03;100.00;101116.69;5016774;28;20057;-76
2021/11/17 06:15:07;;;;;;;13.95;10.10;;;;;;;4.07;100.00;101114.84;5019244;28;20711;-78
2021/11/17 06:17:35;;;;;;;12.63;9.57;;;;;;;4.06;100.00;101111.41;5034792;28;20049;-76
2021/11/17 06:20:04;;;;;;;15.05;9.85;;;;;;;4.01;100.00;101120.22;5046291;28;20050;-74
2021/11/17 06:22:32;;;;;;;14.02;10.02;;;;;;;4.02;100.00;101122.78;5014626;28;20878;-76
2021/11/17 06:25:02;;;;;;;14.32;10.57;;;;;;;4.06;100.00;101128.78;5032018;28;20053;-75
2021/11/17 06:27:31;;;;;;;18.45;10.52;;;;;;;4.05;100.00;101119.22;4997843;28;20049;-75
2021/11/17 06:29:59;;;;;;;15.40;9.43;;;;;;;4.18;100.00;101118.03;4995068;28;20050;-75
2021/11/17 06:32:28;;;;;;;15.82;10.48;;;;;;;4.09;100.00;101123.47;5019731;28;20045;-75
2021/11/17 06:34:58;;;;;;;15.30;10.23;;;;;;;4.02;100.00;101120.19;5001412;28;20076;-75
2021/11/17 06:37:27;;;;;;;14.80;10.38;;;;;;;4.00;100.00;101119.34;4999086;28;20050;-74
2021/11/17 06:39:58;;;;;;;15.70;10.82;;;;;;;4.02;100.00;101119.31;5010084;28;20056;-76
2021/11/17 06:42:37;;;;;;;17.60;10.80;;;;;;;4.00;100.00;101121.94;4987166;28;20114;-75
2021/11/17 06:45:10;;;;;;;19.40;10.80;;;;;;;3.96;100.00;101117.72;5046229;28;20045;-75
2021/11/17 06:47:38;;;;;;;16.02;10.93;;;;;;;3.95;100.00;101120.34;5016361;28;20057;-73
2021/11/17 06:50:06;;;;;;;15.85;10.90;;;;;;;4.02;100.00;101116.72;5035623;28;20049;-76
2021/11/17 06:52:34;;;;;;;18.92;12.00;;;;;;;4.00;100.00;101119.34;4994295;28;20041;-75
2021/11/17 06:55:03;;;;;;;14.82;10.73;;;;;;;3.96;100.00;101112.53;5028411;28;20056;-75
2021/11/17 06:57:31;;;;;;;15.55;10.20;;;;;;;3.99;100.00;101109.81;5001780;28;20056;-77
2021/11/17 06:59:58;;;;;;;18.58;11.30;;;;;;;3.99;100.00;101119.38;5028258;28;20067;-75
2021/11/17 07:02:26;;;;;;;18.48;11.38;;;;;;;3.97;100.00;101115.97;5023042;28;20583;-74
2021/11/17 07:04:53;;;;;;;20.63;12.75;;;;;;;4.01;100.00;101126.28;5040264;28;20045;-75
2021/11/17 07:07:20;;;;;;;16.25;11.27;;;;;;;4.04;100.00;101122.75;5024151;28;20068;-76
2021/11/17 07:09:47;;;;;;;17.95;12.18;;;;;;;4.06;100.00;101129.63;4990007;28;20073;-76
2021/11/17 07:12:15;;;;;;;19.50;12.43;;;;;;;4.05;100.00;101135.75;5016090;28;20122;-77
2021/11/17 07:14:42;;;;;;;15.32;11.20;;;;;;;4.01;100.00;101126.28;5005897;28;20443;-74
2021/11/17 07:17:09;;;;;;;19.40;12.52;;;;;;;3.96;100.00;101125.53;5015484;28;20043;-76
2021/11/17 07:19:37;;;;;;;21.00;12.82;;;;;;;3.98;100.00;101134.16;5011334;28;20065;-75
2021/11/17 07:22:07;;;;;;;21.80;13.30;;;;;;;3.97;100.00;101129.84;5003435;28;20050;-75
2021/11/17 07:24:37;;;;;;;22.05;12.95;;;;;;;4.01;100.00;101131.50;5031313;28;20392;-76
2021/11/17 07:27:06;;;;;;;18.55;13.05;;;;;;;4.04;100.00;101134.00;5019491;28;20061;-76
2021/11/17 07:29:33;;;;;;;18.92;12.52;;;;;;;4.12;100.00;101138.19;5035284;28;20049;-75
2021/11/17 07:32:01;;;;;;;18.58;12.45;;;;;;;4.05;100.00;101138.34;5005789;28;20064;-75
2021/11/17 07:34:30;;;;;;;21.63;12.57;;;;;;;4.05;100.00;101140.97;5009304;28;20143;-76
2021/11/17 07:36:57;;;;;;;20.20;12.63;;;;;;;4.06;100.00;101139.22;5014163;28;20409;-75
2021/11/17 07:39:25;;;;;;;19.98;13.25;;;;;;;4.03;100.00;101132.31;4999461;28;20211;-74
2021/11/17 07:41:52;;;;;;;19.77;12.45;;;;;;;4.07;100.00;101136.56;4996192;28;20050;-76
2021/11/17 07:44:22;;;;;;;18.70;12.45;;;;;;;4.05;100.00;101127.94;5033820;28;20131;-76
2021/11/17 07:46:53;;;;;;;20.13;13.07;;;;;;;4.14;100.00;101131.19;5042745;28;20046;-74
2021/11/17 07:49:21;;;;;;;18.33;11.50;;;;;;;4.18;100.00;101131.06;5003492;28;20488;-74
2021/11/17 07:51:49;;;;;;;17.23;12.90;;;;;;;4.12;100.00;101131.22;5006783;28;20053;-75
2021/11/17 07:54:19;;;;;;;19.63;13.10;;;;;;;4.13;100.00;101132.94;5006843;28;21676;-75
2021/11/17 07:56:47;;;;;;;22.10;13.55;;;;;;;4.19;100.00;101132.81;4993399;28;20037;-77
2021/11/17 07:59:19;;;;;;;20.20;13.13;;;;;;;4.13;100.00;101139.91;5006580;28;20049;-75
2021/11/17 08:01:49;;;;;;;21.85;12.68;;;;;;;4.15;100.00;101146.81;5016503;28;20052;-74
2021/11/17 08:04:20;;;;;;;19.63;12.52;;;;;;;4.16;100.00;101142.44;5008828;28;20385;-76
2021/11/17 08:06:47;;;;;;;19.98;12.90;;;;;;;4.05;100.00;101137.47;4994100;28;20068;-75
2021/11/17 08:09:15;;;;;;;18.73;12.98;;;;;;;4.15;100.00;101143.34;5002617;28;20050;-76
2021/11/17 08:11:43;;;;;;;19.23;13.05;;;;;;;4.11;100.00;101137.34;5049471;28;20126;-75
2021/11/17 08:14:10;;;;;;;18.00;12.25;;;;;;;4.22;100.00;101143.13;5004964;28;20054;-75
2021/11/17 08:16:39;;;;;;;18.33;12.27;;;;;;;4.19;100.00;101138.03;5028051;28;20045;-75
2021/11/17 08:19:06;;;;;;;19.92;13.25;;;;;;;4.21;100.00;101137.97;5034957;28;20539;-75
2021/11/17 08:21:33;;;;;;;20.83;13.70;;;;;;;4.17;100.00;101131.13;5014665;28;20414;-75
2021/11/17 08:24:01;;;;;;;19.35;13.60;;;;;;;4.18;100.00;101127.63;5039873;28;20072;-76
2021/11/17 08:26:29;;;;;;;19.95;13.07;;;;;;;4.18;100.00;101136.28;5012237;28;20045;-76
2021/11/17 08:28:56;;;;;;;19.55;12.32;;;;;;;4.22;100.00;101134.47;5000914;28;20042;-76
2021/11/17 08:31:26;;;;;;;17.02;13.13;;;;;;;4.24;100.00;101133.53;5025237;28;20061;-75
2021/11/17 08:33:54;;;;;;;20.67;13.55;;;;;;;4.27;100.00;101130.00;5041473;28;20053;-74
2021/11/17 08:36:22;;;;;;;21.25;14.25;;;;;;;4.27;100.00;101127.38;5004343;28;20387;-75
2021/11/17 08:38:54;;;;;;;18.10;12.50;;;;;;;4.28;100.00;101126.50;5011922;28;20057;-77
2021/11/17 08:41:23;;;;;;;19.65;13.55;;;;;;;4.19;100.00;101116.31;5007150;28;20046;-76
2021/11/17 08:43:53;;;;;;;20.40;14.20;;;;;;;4.19;100.00;101113.72;5002242;28;20053;-75
2021/11/17 08:46:21;;;;;;;21.88;15.15;;;;;;;4.24;100.00;101120.50;5017391;28;20063;-74
2021/11/17 08:48:49;;;;;;;19.75;13.73;;;;;;;4.25;100.00;101121.38;5009859;28;20052;-75
2021/11/17 08:51:18;;;;;;;21.40;14.13;;;;;;;4.25;100.00;101123.97;5043392;28;20057;-76
2021/11/17 08:53:47;;;;;;;26.00;14.75;;;;;;;4.24;100.00;101122.28;4985735;28;20193;-77
2021/11/17 08:56:15;;;;;;;22.17;14.70;;;;;;;4.29;100.00;101129.06;5022695;28;20069;-75
2021/11/17 08:58:42;;;;;;;23.15;14.32;;;;;;;4.29;100.00;101125.63;5008565;28;20535;-76
2021/11/17 09:01:10;;;;;;;22.25;15.50;;;;;;;4.33;100.00;101122.03;5002277;28;20054;-76
2021/11/17 09:03:37;;;;;;;24.80;14.40;;;;;;;4.31;100.00;101119.44;5012027;28;20050;-75
2021/11/17 09:06:06;;;;;;;23.42;15.30;;;;;;;4.34;100.00;101128.97;5032505;28;20042;-75
2021/11/17 09:08:34;;;;;;;23.45;13.57;;;;;;;4.37;100.00;101122.78;5009448;28;20187;-75
2021/11/17 09:11:07;;;;;;;25.52;15.00;;;;;;;4.38;100.00;101124.53;5023408;28;21604;-75
2021/11/17 09:13:35;;;;;;;23.50;14.30;;;;;;;4.40;100.00;101123.56;5015125;28;20053;-76
2021/11/17 09:16:03;;;;;;;21.85;14.15;;;;;;;4.43;100.00;101128.72;5022824;28;20578;-75
2021/11/17 09:18:34;;;;;;;22.60;14.52;;;;;;;4.50;100.00;101126.78;5018857;28;20438;-77
2021/11/17 09:21:05;;;;;;;22.42;14.68;;;;;;;4.47;100.00;101130.34;5007827;28;20046;-75
2021/11/17 09:23:33;;;;;;;25.63;15.38;;;;;;;4.50;100.00;101122.47;5007293;28;20122;-76
2021/11/17 09:26:02;;;;;;;23.20;14.65;;;;;;;4.45;100.00;101121.72;4996908;28;20232;-76
2021/11/17 09:28:32;;;;;;;21.90;14.07;;;;;;;4.45;100.00;101124.31;5002669;28;20439;-76
2021/11/17 09:31:00;;;;;;;26.10;16.35;;;;;;;4.51;100.00;101120.72;4994953;28;20744;-74
2021/11/17 09:33:33;;;;;;;21.88;14.57;;;;;;;4.55;100.00;101127.56;5013695;28;20052;-76
2021/11/17 09:36:00;;;;;;;25.17;14.98;;;;;;;4.56;100.00;101129.28;5022854;28;20096;-76
2021/11/17 09:38:28;;;;;;;25.48;15.32;;;;;;;4.71;100.00;101128.84;5036758;28;20395;-74
2021/11/17 09:40:57;;;;;;;22.67;13.98;;;;;;;4.66;100.00;101128.13;5003904;28;20136;-74
2021/11/17 09:43:27;;;;;;;23.13;14.40;;;;;;;4.75;100.00;101113.97;5005774;28;20065;-75
2021/11/17 09:45:55;;;;;;;22.73;13.02;;;;;;;4.75;100.00;101113.97;5022805;28;20071;-74
2021/11/17 09:48:27;;;;;;;28.60;14.13;;;;;;;4.69;100.00;101115.00;5012168;28;20140;-75
2021/11/17 09:51:03;;;;;;;22.83;14.40;;;;;;;4.64;100.00;101116.00;4995237;28;20392;-75
2021/11/17 09:53:52;;;;;;;20.40;13.15;;;;;;;4.68;100.00;101112.44;5014020;28;20045;-76
2021/11/17 09:56:39;;;;;;;20.65;13.50;;;;;;;4.66;100.00;101109.00;5035514;28;20041;-74
2021/11/17 09:59:13;;;;;;;24.13;14.82;;;;;;;4.60;100.00;101106.59;5017412;28;20519;-77
2021/11/17 10:01:44;;;;;;;23.85;14.40;;;;;;;4.67;100.00;101110.72;5029514;28;20055;-74
2021/11/17 10:04:21;;;;;;;22.27;14.07;;;;;;;4.66;100.00;101102.03;5026560;28;20049;-76
2021/11/17 10:10:06;;;;;;;21.02;12.68;;;;;;;4.65;100.00;101113.38;5008281;28;20046;-75
2021/11/17 10:13:01;;;;;;;23.42;14.27;;;;;;;4.60;100.00;101112.66;4994791;28;20079;-74
2021/11/17 10:15:33;;;;;;;19.88;13.23;;;;;;;4.68;100.00;101108.06;5015927;28;20388;-76
2021/11/17 10:18:22;;;;;;;18.73;12.10;;;;;;;4.68;100.00;101099.38;5010193;28;20419;-77
2021/11/17 10:20:50;;;;;;;23.40;12.75;;;;;;;4.70;100.00;101101.06;5031247;28;20049;-75
2021/11/17 10:23:24;;;;;;;18.25;12.30;;;;;;;4.76;100.00;101087.00;5009275;28;20038;-75
2021/11/17 10:26:11;;;;;;;20.30;12.30;;;;;;;4.75;100.00;101085.28;5014250;28;20095;-74
2021/11/17 10:28:49;;;;;;;22.98;14.00;;;;;;;4.82;100.00;101089.47;5017979;28;20049;-75
2021/11/17 10:31:22;;;;;;;22.30;13.18;;;;;;;4.82;100.00;101086.84;5034801;28;20077;-75
2021/11/17 10:34:05;;;;;;;21.38;13.65;;;;;;;4.82;100.00;101074.66;5015320;28;20144;-74
2021/11/17 10:36:48;;;;;;;21.60;12.77;;;;;;;4.72;100.00;101070.56;5013548;28;20065;-76
2021/11/17 10:39:29;;;;;;;22.05;12.50;;;;;;;4.67;100.00;101079.44;5041495;28;21105;-76
2021/11/17 10:42:02;;;;;;;19.65;12.35;;;;;;;4.78;100.00;101087.81;4984244;28;20151;-74
2021/11/17 10:44:36;;;;;;;19.27;11.88;;;;;;;4.73;100.00;101089.72;5031388;28;20128;-75
2021/11/17 10:47:30;;;;;;;20.27;11.98;;;;;;;4.75;100.00;101077.47;5020696;28;20053;-75
2021/11/17 10:50:04;;;;;;;18.63;11.52;;;;;;;4.77;100.00;101086.09;5009078;28;20512;-75
2021/11/17 10:52:52;;;;;;;17.40;11.38;;;;;;;4.81;100.00;101082.50;5029486;28;20091;-77
2021/11/17 10:55:27;;;;;;;19.02;11.82;;;;;;;4.78;100.00;101078.25;5031266;28;20049;-76
2021/11/17 10:57:54;;;;;;;;;;;;;;;4.76;100.00;101076.56;5000100;28;20075;-76
2021/11/17 11:00:27;;;;;;;18.83;11.80;;;;;;;4.85;100.00;101078.06;5006437;28;19929;-75
2021/11/17 11:02:56;;;;;;;18.92;11.93;;;;;;;4.76;100.00;101076.56;4996495;28;20143;-76
2021/11/17 11:05:28;;;;;;;18.98;12.25;;;;;;;4.83;100.00;101072.91;4990475;28;20047;-76
2021/11/17 11:08:15;;;;;;;20.20;12.13;;;;;;;4.94;100.00;101076.03;5004768;28;20065;-77
2021/11/17 11:10:46;;;;;;;20.98;12.20;;;;;;;4.88;100.00;101078.00;4991832;28;20048;-75
2021/11/17 11:13:21;;;;;;;18.23;11.65;;;;;;;4.87;100.00;101084.13;5022690;28;20053;-77
2021/11/17 11:15:52;;;;;;;18.35;12.38;;;;;;;4.78;100.00;101069.56;5042341;28;20385;-74
2021/11/17 11:18:19;;;;;;;15.52;10.93;;;;;;;4.81;100.00;101070.31;5044297;28;22186;-76
2021/11/17 11:20:51;;;;;;;17.33;11.75;;;;;;;4.73;100.00;101068.84;5030561;28;20539;-74
2021/11/17 11:23:24;;;;;;;19.45;11.30;;;;;;;4.89;100.00;101079.69;4985693;28;20045;-76
2021/11/17 11:26:14;;;;;;;19.08;11.95;;;;;;;4.93;100.00;101079.56;5027871;28;20057;-77
2021/11/17 11:29:10;;;;;;;19.55;12.23;;;;;;;4.98;100.00;101075.06;5004252;28;20037;-75
2021/11/17 11:31:42;;;;;;;19.80;12.60;;;;;;;5.07;100.00;101082.63;5006934;28;20056;-76
2021/11/17 11:34:12;;;;;;;18.38;11.32;;;;;;;5.04;100.00;101079.25;5014402;28;20046;-76
2021/11/17 11:36:46;;;;;;;18.25;11.32;;;;;;;4.93;100.00;101086.53;5005116;28;20073;-75
2021/11/17 11:39:14;;;;;;;18.95;12.20;;;;;;;4.99;100.00;101078.53;5025118;28;20073;-77
2021/11/17 11:41:46;;;;;;;18.95;11.68;;;;;;;4.92;100.00;101093.50;5013149;28;20232;-74
2021/11/17 11:44:16;;;;;;;21.92;11.60;;;;;;;4.83;100.00;101086.78;4995590;28;20132;-76
2021/11/17 11:47:03;;;;;;;19.92;13.25;;;;;;;4.80;100.00;101083.41;5006847;28;20049;-75
2021/11/17 11:49:34;;;;;;;17.95;10.70;;;;;;;4.83;100.00;101086.78;4979449;28;20209;-75
2021/11/17 11:52:29;;;;;;;21.05;13.00;;;;;;;4.81;100.00;101072.94;5030852;28;20496;-75
2021/11/17 11:55:00;;;;;;;;;;;;;;;4.93;100.00;101076.09;5013988;28;20049;-75
2021/11/17 11:57:47;;;;;;;19.00;11.77;;;;;;;4.91;100.00;101072.66;5032239;28;19921;-75
2021/11/17 12:00:25;;;;;;;17.67;12.15;;;;;;;4.90;100.00;101066.59;5022859;28;20132;-75
2021/11/17 12:03:05;;;;;;;21.42;12.90;;;;;;;4.95;100.00;101077.75;5032810;28;20053;-74
2021/11/17 12:05:35;;;;;;;18.85;12.27;;;;;;;4.98;100.00;101074.22;5013736;28;20046;-75
2021/11/17 12:08:26;;;;;;;18.45;11.85;;;;;;;4.98;100.00;101069.00;5036804;28;20124;-77
2021/11/17 12:11:02;;;;;;;18.67;12.05;;;;;;;5.04;100.00;101072.31;5031786;28;20056;-75
2021/11/17 12:13:41;;;;;;;18.20;11.55;;;;;;;4.95;100.00;101075.13;5001938;28;20046;-76
2021/11/17 12:16:11;;;;;;;19.98;12.43;;;;;;;4.88;100.00;101071.00;5032480;28;20404;-76
2021/11/17 12:18:55;;;;;;;19.23;11.50;;;;;;;4.82;100.00;101074.66;5006755;28;20069;-75
2021/11/17 12:21:31;;;;;;;17.45;11.35;;;;;;;4.76;100.00;101064.38;4976128;28;20053;-76
2021/11/17 12:24:10;;;;;;;18.58;13.00;;;;;;;4.84;100.00;101056.34;5021979;28;20050;-76
2021/11/17 12:26:43;;;;;;;17.30;11.57;;;;;;;4.79;100.00;101073.88;5029421;28;20053;-77
2021/11/17 12:29:26;;;;;;;20.15;12.73;;;;;;;4.80;100.00;101068.59;5005312;28;20041;-78
2021/11/17 12:32:02;;;;;;;19.17;11.93;;;;;;;4.75;100.00;101085.28;4985072;28;20045;-77
2021/11/17 12:35:00;;;;;;;18.40;12.45;;;;;;;4.83;100.00;101078.97;5021683;28;20057;-76
2021/11/17 12:37:34;;;;;;;18.17;12.57;;;;;;;4.93;100.00;101084.78;5020759;28;20047;-74
2021/11/17 12:40:13;;;;;;;18.08;11.23;;;;;;;4.97;100.00;101075.13;4982223;28;20061;-74
2021/11/17 12:42:53;;;;;;;16.15;9.77;;;;;;;5.11;100.00;101056.44;5022719;28;20177;-75
2021/11/17 12:45:38;;;;;;;13.55;9.15;;;;;;;5.18;100.00;101052.75;5038204;28;20064;-75
2021/11/17 12:48:10;;;;;;;13.18;9.43;;;;;;;5.26;100.00;101050.75;5012777;28;20454;-76
2021/11/17 12:50:42;;;;;;;16.05;9.95;;;;;;;5.43;100.00;101045.88;5024505;28;20054;-76
2021/11/17 12:53:20;;;;;;;15.63;9.18;;;;;;;5.43;99.71;101058.94;4996469;28;20144;-76
2021/11/17 12:56:05;;;;;;;16.40;8.02;;;;;;;5.39;98.38;101057.31;5009017;28;20091;-74
2021/11/17 12:58:42;;;;;;;14.00;8.17;;;;;;;5.43;98.36;101056.34;5041352;28;20060;-75
2021/11/17 13:01:12;;;;;;;14.52;8.85;;;;;;;5.42;98.41;101049.41;5013528;28;20038;-76
2021/11/17 13:03:58;;;;;;;12.80;7.32;;;;;;;5.50;98.16;101049.19;5010225;28;20381;-74
2021/11/17 13:06:39;;;;;;;11.98;7.93;;;;;;;5.48;97.85;101043.13;5014251;28;20808;-75
2021/11/17 13:09:10;;;;;;;13.50;8.02;;;;;;;5.52;97.08;101056.03;5005957;28;20049;-78
2021/11/17 13:11:59;;;;;;;11.00;7.90;;;;;;;5.44;97.85;101062.41;5026740;28;20045;-76
2021/11/17 13:14:35;;;;;;;14.23;7.55;;;;;;;5.43;98.39;101052.88;5022678;28;20069;-76
2021/11/17 13:17:20;;;;;;;14.15;7.80;;;;;;;5.57;98.19;101040.22;5037020;28;20630;-75
2021/11/17 13:19:56;;;;;;;10.45;6.85;;;;;;;5.66;97.57;101047.78;5007640;28;20049;-76
2021/11/17 13:22:36;;;;;;;9.98;7.38;;;;;;;5.67;96.90;101051.25;5015628;28;20051;-75
2021/11/17 13:25:13;;;;;;;13.00;7.90;;;;;;;5.56;97.13;101051.59;5010901;28;20152;-77
2021/11/17 13:27:43;;;;;;;9.68;6.53;;;;;;;5.63;97.21;101055.72;5030290;28;20056;-76
2021/11/17 13:30:44;;;;;;;16.38;7.57;;;;;;;5.57;97.27;101048.91;5039629;28;20116;-74
2021/11/17 13:33:26;;;;;;;12.10;7.57;;;;;;;5.55;97.24;101050.75;4996506;28;20053;-76
2021/11/17 13:36:12;;;;;;;15.30;7.82;;;;;;;5.59;97.95;101054.97;4995530;28;20606;-76
2021/11/17 13:38:53;;;;;;;12.73;7.53;;;;;;;5.58;97.81;101057.59;4989942;28;20504;-75
2021/11/17 13:41:41;;;;;;;13.88;7.55;;;;;;;5.62;99.23;101061.81;4996201;28;20054;-76
2021/11/17 13:44:10;;;;;;;14.52;7.65;;;;;;;5.74;99.50;101060.59;4993403;28;20057;-78
2021/11/17 13:46:59;;;;;;;12.35;8.35;;;;;;;5.80;98.94;101056.00;4982270;28;20103;-78
2021/11/17 13:49:27;;;;;;;11.23;7.45;;;;;;;5.71;98.24;101043.25;4991399;28;20049;-76
2021/11/17 13:51:54;;;;;;;13.02;9.48;;;;;;;5.74;98.44;101056.22;5014261;28;20508;-75
2021/11/17 13:54:22;;;;;;;11.38;7.95;;;;;;;5.79;98.50;101041.25;5007843;28;20060;-74
2021/11/17 13:56:49;;;;;;;10.00;7.50;;;;;;;5.90;97.65;101045.28;5016001;28;20069;-75
2021/11/17 13:59:18;;;;;;;13.40;8.00;;;;;;;6.01;97.20;101033.59;4995095;28;20038;-76
2021/11/17 14:01:45;;;;;;;11.90;7.60;;;;;;;6.05;95.77;101039.59;5014919;28;20132;-76
2021/11/17 14:04:13;;;;;;;14.40;9.38;;;;;;;5.93;96.41;101051.28;5026708;28;20057;-76
2021/11/17 14:06:42;;;;;;;18.10;8.95;;;;;;;5.85;97.00;101048.03;5010476;28;20056;-74
2021/11/17 14:09:14;;;;;;;15.05;9.75;;;;;;;5.83;97.30;101049.84;5022988;28;20061;-75
2021/11/17 14:11:42;;;;;;;14.50;8.93;;;;;;;5.81;97.04;101030.78;5015016;28;20199;-78
2021/11/17 14:14:09;;;;;;;13.05;8.63;;;;;;;5.85;98.13;101029.75;5006155;28;20076;-77
2021/11/17 14:16:37;;;;;;;13.27;9.27;;;;;;;6.09;96.03;101020.28;4993745;28;20111;-77
2021/11/17 14:19:05;;;;;;;11.13;7.38;;;;;;;6.47;95.43;101026.78;5009043;28;20140;-76
2021/11/17 14:21:32;;;;;;;13.55;9.27;;;;;;;6.95;91.05;101032.91;5016116;28;20049;-75
2021/11/17 14:24:00;;;;;;;11.57;7.93;;;;;;;6.81;90.95;101034.28;5009103;28;20073;-76
2021/11/17 14:26:27;;;;;;;12.13;8.10;;;;;;;6.79;90.72;101030.00;5010019;28;20124;-76
2021/11/17 14:28:59;;;;;;;17.50;9.00;;;;;;;6.73;90.41;101032.84;5027961;28;20368;-80